New City, New York
Current Conditions -  °F | °C
As of 7:56 AM on Friday 19 Dec 2014 (Local Time) from KHPN Reporting Station
Broken Clouds Broken Clouds  
Wind Chill: 25°   Ceiling: 3200
Heat Index: 34°   Visibility: 10mi
Dew Point: 22°   Wind: 14mph
Humidity: 61%   Direction: 290°WNW
Pressure: 29.99"   Gusts: 22mph
Location:  41.15°N, 74.01°W
Report Text: KHPN 191256Z 29012G19KT 10SM BKN032 01/M06 A2999 RMK AO2 SLP162 T00111056
Loading
Personal Weather Stations






























Interactive Weather Map New forecast layout! Learn more

10-Day Weather Forecast

Advertisements
Track Severe Weather on mobile